sensor_id;sensor_type;location;lat;lon;timestamp;temperature;humidity
39825;DHT22;25503;52.532;13.640;2022-12-07T00:01:37;3.60;99.90
39825;DHT22;25503;52.532;13.640;2022-12-07T00:04:06;3.70;99.90
39825;DHT22;25503;52.532;13.640;2022-12-07T00:06:33;3.60;99.90
39825;DHT22;25503;52.532;13.640;2022-12-07T00:08:59;3.60;99.90
39825;DHT22;25503;52.532;13.640;2022-12-07T00:11:25;3.50;99.90
39825;DHT22;25503;52.532;13.640;2022-12-07T00:13:56;3.50;99.90
39825;DHT22;25503;52.532;13.640;2022-12-07T00:16:26;3.40;99.90
39825;DHT22;25503;52.532;13.640;2022-12-07T00:18:52;3.40;99.90
39825;DHT22;25503;52.532;13.640;2022-12-07T00:21:32;3.30;99.90
39825;DHT22;25503;52.532;13.640;2022-12-07T00:24:02;3.30;99.90
39825;DHT22;25503;52.532;13.640;2022-12-07T00:26:31;3.30;99.90
39825;DHT22;25503;52.532;13.640;2022-12-07T00:29:02;3.20;99.90
39825;DHT22;25503;52.532;13.640;2022-12-07T00:31:32;3.20;99.90
39825;DHT22;25503;52.532;13.640;2022-12-07T00:33:59;3.20;99.90
39825;DHT22;25503;52.532;13.640;2022-12-07T00:36:30;3.20;99.90
39825;DHT22;25503;52.532;13.640;2022-12-07T00:38:58;3.20;99.90
39825;DHT22;25503;52.532;13.640;2022-12-07T00:41:26;3.10;99.90
39825;DHT22;25503;52.532;13.640;2022-12-07T00:43:52;3.10;99.90
39825;DHT22;25503;52.532;13.640;2022-12-07T00:46:19;3.10;99.90
39825;DHT22;25503;52.532;13.640;2022-12-07T00:48:47;3.10;99.90
39825;DHT22;25503;52.532;13.640;2022-12-07T00:51:14;3.10;99.90
39825;DHT22;25503;52.532;13.640;2022-12-07T00:53:40;3.00;99.90
39825;DHT22;25503;52.532;13.640;2022-12-07T00:56:11;3.00;99.90
39825;DHT22;25503;52.532;13.640;2022-12-07T00:58:38;3.00;99.90
39825;DHT22;25503;52.532;13.640;2022-12-07T01:01:07;3.00;99.90
39825;DHT22;25503;52.532;13.640;2022-12-07T01:03:33;2.90;99.90
39825;DHT22;25503;52.532;13.640;2022-12-07T01:06:01;2.90;99.90
39825;DHT22;25503;52.532;13.640;2022-12-07T01:08:28;2.90;99.90
39825;DHT22;25503;52.532;13.640;2022-12-07T01:11:06;2.90;99.90
39825;DHT22;25503;52.532;13.640;2022-12-07T01:13:33;2.90;99.90
39825;DHT22;25503;52.532;13.640;2022-12-07T01:16:06;2.80;99.90
39825;DHT22;25503;52.532;13.640;2022-12-07T01:18:34;2.80;99.90
39825;DHT22;25503;52.532;13.640;2022-12-07T01:21:02;2.80;99.90
39825;DHT22;25503;52.532;13.640;2022-12-07T01:23:30;2.80;99.90
39825;DHT22;25503;52.532;13.640;2022-12-07T01:25:58;2.80;99.90
39825;DHT22;25503;52.532;13.640;2022-12-07T01:28:25;2.80;99.90
39825;DHT22;25503;52.532;13.640;2022-12-07T01:31:05;2.70;99.90
39825;DHT22;25503;52.532;13.640;2022-12-07T01:33:34;2.70;99.90
39825;DHT22;25503;52.532;13.640;2022-12-07T01:36:12;2.70;99.90
39825;DHT22;25503;52.532;13.640;2022-12-07T01:38:39;2.70;99.90
39825;DHT22;25503;52.532;13.640;2022-12-07T01:41:07;2.60;99.90
39825;DHT22;25503;52.532;13.640;2022-12-07T01:43:34;2.60;99.90
39825;DHT22;25503;52.532;13.640;2022-12-07T01:46:01;2.60;99.90
39825;DHT22;25503;52.532;13.640;2022-12-07T01:48:41;2.60;99.90
39825;DHT22;25503;52.532;13.640;2022-12-07T01:51:12;2.50;99.90
39825;DHT22;25503;52.532;13.640;2022-12-07T01:53:44;2.50;99.90
39825;DHT22;25503;52.532;13.640;2022-12-07T01:56:14;2.50;99.90
39825;DHT22;25503;52.532;13.640;2022-12-07T01:58:45;2.60;99.90
39825;DHT22;25503;52.532;13.640;2022-12-07T02:01:11;2.50;99.90
39825;DHT22;25503;52.532;13.640;2022-12-07T02:03:47;2.50;99.90
39825;DHT22;25503;52.532;13.640;2022-12-07T02:06:19;2.50;99.90
39825;DHT22;25503;52.532;13.640;2022-12-07T02:08:46;2.50;99.90
39825;DHT22;25503;52.532;13.640;2022-12-07T02:11:14;2.50;99.90
39825;DHT22;25503;52.532;13.640;2022-12-07T02:13:42;2.50;99.90
39825;DHT22;25503;52.532;13.640;2022-12-07T02:27:21;2.50;99.90
39825;DHT22;25503;52.532;13.640;2022-12-07T02:30:12;2.50;99.90
39825;DHT22;25503;52.532;13.640;2022-12-07T02:33:03;2.50;99.90
39825;DHT22;25503;52.532;13.640;2022-12-07T02:35:56;2.50;99.90
39825;DHT22;25503;52.532;13.640;2022-12-07T02:41:22;2.50;99.90
39825;DHT22;25503;52.532;13.640;2022-12-07T02:43:55;2.50;99.90
39825;DHT22;25503;52.532;13.640;2022-12-07T02:46:27;2.50;99.90
39825;DHT22;25503;52.532;13.640;2022-12-07T02:48:55;2.40;99.90
39825;DHT22;25503;52.532;13.640;2022-12-07T02:51:21;2.40;99.90
39825;DHT22;25503;52.532;13.640;2022-12-07T02:53:47;2.40;99.90
39825;DHT22;25503;52.532;13.640;2022-12-07T02:59:28;2.40;99.90
39825;DHT22;25503;52.532;13.640;2022-12-07T03:05:20;2.30;99.90
39825;DHT22;25503;52.532;13.640;2022-12-07T03:13:28;2.30;99.90
39825;DHT22;25503;52.532;13.640;2022-12-07T03:16:15;2.20;99.90
39825;DHT22;25503;52.532;13.640;2022-12-07T03:19:00;2.20;99.90
39825;DHT22;25503;52.532;13.640;2022-12-07T03:21:38;2.20;99.90
39825;DHT22;25503;52.532;13.640;2022-12-07T03:24:27;2.20;99.90
39825;DHT22;25503;52.532;13.640;2022-12-07T03:27:03;2.20;99.90
39825;DHT22;25503;52.532;13.640;2022-12-07T03:29:35;2.10;99.90
39825;DHT22;25503;52.532;13.640;2022-12-07T03:32:35;2.10;99.90
39825;DHT22;25503;52.532;13.640;2022-12-07T03:37:54;2.00;99.90
39825;DHT22;25503;52.532;13.640;2022-12-07T03:40:35;2.00;99.90
39825;DHT22;25503;52.532;13.640;2022-12-07T03:43:03;2.00;99.90
39825;DHT22;25503;52.532;13.640;2022-12-07T03:48:09;1.90;99.90
39825;DHT22;25503;52.532;13.640;2022-12-07T03:50:54;1.90;99.90
39825;DHT22;25503;52.532;13.640;2022-12-07T03:53:36;1.90;99.90
39825;DHT22;25503;52.532;13.640;2022-12-07T03:56:03;1.90;99.90
39825;DHT22;25503;52.532;13.640;2022-12-07T03:58:32;1.90;99.90
39825;DHT22;25503;52.532;13.640;2022-12-07T04:01:06;1.90;99.90
39825;DHT22;25503;52.532;13.640;2022-12-07T04:03:34;1.90;99.90
39825;DHT22;25503;52.532;13.640;2022-12-07T04:06:00;1.90;99.90
39825;DHT22;25503;52.532;13.640;2022-12-07T04:08:26;1.90;99.90
39825;DHT22;25503;52.532;13.640;2022-12-07T04:10:55;1.90;99.90
39825;DHT22;25503;52.532;13.640;2022-12-07T04:13:20;1.90;99.90
39825;DHT22;25503;52.532;13.640;2022-12-07T04:15:46;1.90;99.90
39825;DHT22;25503;52.532;13.640;2022-12-07T04:18:12;1.90;99.90
39825;DHT22;25503;52.532;13.640;2022-12-07T04:20:41;2.00;99.90
39825;DHT22;25503;52.532;13.640;2022-12-07T04:23:07;1.90;99.90
39825;DHT22;25503;52.532;13.640;2022-12-07T04:25:35;1.90;99.90
39825;DHT22;25503;52.532;13.640;2022-12-07T04:28:04;1.90;99.90
39825;DHT22;25503;52.532;13.640;2022-12-07T04:30:30;1.90;99.90
39825;DHT22;25503;52.532;13.640;2022-12-07T04:32:56;1.80;99.90
39825;DHT22;25503;52.532;13.640;2022-12-07T04:35:21;1.80;99.90
39825;DHT22;25503;52.532;13.640;2022-12-07T04:37:47;1.80;99.90
39825;DHT22;25503;52.532;13.640;2022-12-07T04:40:16;1.80;99.90
39825;DHT22;25503;52.532;13.640;2022-12-07T04:42:42;1.80;99.90
39825;DHT22;25503;52.532;13.640;2022-12-07T04:45:08;1.70;99.90
39825;DHT22;25503;52.532;13.640;2022-12-07T04:47:34;1.70;99.90
39825;DHT22;25503;52.532;13.640;2022-12-07T04:50:00;1.70;99.90
39825;DHT22;25503;52.532;13.640;2022-12-07T04:52:26;1.70;99.90
39825;DHT22;25503;52.532;13.640;2022-12-07T04:54:51;1.70;99.90
39825;DHT22;25503;52.532;13.640;2022-12-07T04:57:17;1.70;99.90
39825;DHT22;25503;52.532;13.640;2022-12-07T04:59:43;1.70;99.90
39825;DHT22;25503;52.532;13.640;2022-12-07T05:02:11;1.70;99.90
39825;DHT22;25503;52.532;13.640;2022-12-07T05:04:37;1.70;99.90
39825;DHT22;25503;52.532;13.640;2022-12-07T05:07:03;1.70;99.90
39825;DHT22;25503;52.532;13.640;2022-12-07T05:09:32;1.70;99.90
39825;DHT22;25503;52.532;13.640;2022-12-07T05:12:00;1.70;99.90
39825;DHT22;25503;52.532;13.640;2022-12-07T05:14:26;1.70;99.90
39825;DHT22;25503;52.532;13.640;2022-12-07T05:16:52;1.70;99.90
39825;DHT22;25503;52.532;13.640;2022-12-07T05:19:22;1.80;99.90
39825;DHT22;25503;52.532;13.640;2022-12-07T05:21:48;1.80;99.90
39825;DHT22;25503;52.532;13.640;2022-12-07T05:24:16;1.80;99.90
39825;DHT22;25503;52.532;13.640;2022-12-07T05:26:42;1.80;99.90
39825;DHT22;25503;52.532;13.640;2022-12-07T05:29:12;1.90;99.90
39825;DHT22;25503;52.532;13.640;2022-12-07T05:31:38;1.90;99.90
39825;DHT22;25503;52.532;13.640;2022-12-07T05:34:07;1.90;99.90
39825;DHT22;25503;52.532;13.640;2022-12-07T05:36:33;1.90;99.90
39825;DHT22;25503;52.532;13.640;2022-12-07T05:38:59;2.00;99.90
39825;DHT22;25503;52.532;13.640;2022-12-07T05:41:25;2.00;99.90
39825;DHT22;25503;52.532;13.640;2022-12-07T05:44:09;2.00;99.90
39825;DHT22;25503;52.532;13.640;2022-12-07T05:46:35;2.00;99.90
39825;DHT22;25503;52.532;13.640;2022-12-07T05:49:01;2.00;99.90
39825;DHT22;25503;52.532;13.640;2022-12-07T05:51:27;2.00;99.90
39825;DHT22;25503;52.532;13.640;2022-12-07T05:53:53;2.00;99.90
39825;DHT22;25503;52.532;13.640;2022-12-07T05:56:22;2.00;99.90
39825;DHT22;25503;52.532;13.640;2022-12-07T05:58:48;2.10;99.90
39825;DHT22;25503;52.532;13.640;2022-12-07T06:01:35;2.10;99.90
39825;DHT22;25503;52.532;13.640;2022-12-07T06:04:01;2.10;99.90
39825;DHT22;25503;52.532;13.640;2022-12-07T06:06:27;2.10;99.90
39825;DHT22;25503;52.532;13.640;2022-12-07T06:08:53;2.20;99.90
39825;DHT22;25503;52.532;13.640;2022-12-07T06:11:21;2.20;99.90
39825;DHT22;25503;52.532;13.640;2022-12-07T06:14:05;2.20;99.90
39825;DHT22;25503;52.532;13.640;2022-12-07T06:16:31;2.30;99.90
39825;DHT22;25503;52.532;13.640;2022-12-07T06:19:02;2.30;99.90
39825;DHT22;25503;52.532;13.640;2022-12-07T06:21:28;2.30;99.90
39825;DHT22;25503;52.532;13.640;2022-12-07T06:23:54;2.40;99.90
39825;DHT22;25503;52.532;13.640;2022-12-07T06:26:20;2.40;99.90
39825;DHT22;25503;52.532;13.640;2022-12-07T06:28:45;2.40;99.90
39825;DHT22;25503;52.532;13.640;2022-12-07T06:31:11;2.50;99.90
39825;DHT22;25503;52.532;13.640;2022-12-07T06:33:41;2.50;99.90
39825;DHT22;25503;52.532;13.640;2022-12-07T06:36:07;2.50;99.90
39825;DHT22;25503;52.532;13.640;2022-12-07T06:38:33;2.60;99.90
39825;DHT22;25503;52.532;13.640;2022-12-07T06:40:59;2.60;99.90
39825;DHT22;25503;52.532;13.640;2022-12-07T06:43:24;2.60;99.90
39825;DHT22;25503;52.532;13.640;2022-12-07T06:45:50;2.60;99.90
39825;DHT22;25503;52.532;13.640;2022-12-07T06:48:16;2.60;99.90
39825;DHT22;25503;52.532;13.640;2022-12-07T06:50:44;2.70;99.90
39825;DHT22;25503;52.532;13.640;2022-12-07T06:53:10;2.70;99.90
39825;DHT22;25503;52.532;13.640;2022-12-07T06:55:36;2.70;99.90
39825;DHT22;25503;52.532;13.640;2022-12-07T06:58:02;2.70;99.90
39825;DHT22;25503;52.532;13.640;2022-12-07T07:00:31;2.70;99.90
39825;DHT22;25503;52.532;13.640;2022-12-07T07:02:58;2.70;99.90
39825;DHT22;25503;52.532;13.640;2022-12-07T07:05:27;2.80;99.90
39825;DHT22;25503;52.532;13.640;2022-12-07T07:07:52;2.80;99.90
39825;DHT22;25503;52.532;13.640;2022-12-07T07:10:18;2.80;99.90
39825;DHT22;25503;52.532;13.640;2022-12-07T07:12:44;2.90;99.90
39825;DHT22;25503;52.532;13.640;2022-12-07T07:15:10;2.90;99.90
39825;DHT22;25503;52.532;13.640;2022-12-07T07:17:37;2.90;99.90
39825;DHT22;25503;52.532;13.640;2022-12-07T07:20:03;2.90;99.90
39825;DHT22;25503;52.532;13.640;2022-12-07T07:22:29;3.00;99.90
39825;DHT22;25503;52.532;13.640;2022-12-07T07:24:55;3.00;99.90
39825;DHT22;25503;52.532;13.640;2022-12-07T07:27:21;3.00;99.90
39825;DHT22;25503;52.532;13.640;2022-12-07T07:29:47;3.10;99.90
39825;DHT22;25503;52.532;13.640;2022-12-07T07:32:13;3.10;99.90
39825;DHT22;25503;52.532;13.640;2022-12-07T07:34:41;3.10;99.90
39825;DHT22;25503;52.532;13.640;2022-12-07T07:37:07;3.20;99.90
39825;DHT22;25503;52.532;13.640;2022-12-07T07:39:33;3.20;99.90
39825;DHT22;25503;52.532;13.640;2022-12-07T07:42:01;3.20;99.90
39825;DHT22;25503;52.532;13.640;2022-12-07T07:44:30;3.20;99.90
39825;DHT22;25503;52.532;13.640;2022-12-07T07:46:56;3.30;99.90
39825;DHT22;25503;52.532;13.640;2022-12-07T07:49:22;3.30;99.90
39825;DHT22;25503;52.532;13.640;2022-12-07T07:51:47;3.40;99.90
39825;DHT22;25503;52.532;13.640;2022-12-07T07:54:16;3.50;99.90
39825;DHT22;25503;52.532;13.640;2022-12-07T07:56:42;3.50;99.90
39825;DHT22;25503;52.532;13.640;2022-12-07T07:59:08;3.50;99.90
39825;DHT22;25503;52.532;13.640;2022-12-07T08:01:33;3.60;99.90
39825;DHT22;25503;52.532;13.640;2022-12-07T08:03:59;3.60;99.90
39825;DHT22;25503;52.532;13.640;2022-12-07T08:06:25;3.60;99.90
39825;DHT22;25503;52.532;13.640;2022-12-07T08:08:54;3.70;99.90
39825;DHT22;25503;52.532;13.640;2022-12-07T08:11:20;3.70;99.90
39825;DHT22;25503;52.532;13.640;2022-12-07T08:13:46;3.70;99.90
39825;DHT22;25503;52.532;13.640;2022-12-07T08:16:17;3.80;99.90
39825;DHT22;25503;52.532;13.640;2022-12-07T08:18:43;3.70;99.90
39825;DHT22;25503;52.532;13.640;2022-12-07T08:21:13;3.80;99.90
39825;DHT22;25503;52.532;13.640;2022-12-07T08:23:42;3.80;99.90
39825;DHT22;25503;52.532;13.640;2022-12-07T08:26:13;3.80;99.90
39825;DHT22;25503;52.532;13.640;2022-12-07T08:28:40;3.80;99.90
39825;DHT22;25503;52.532;13.640;2022-12-07T08:31:09;3.80;99.90
39825;DHT22;25503;52.532;13.640;2022-12-07T08:33:42;3.90;99.90
39825;DHT22;25503;52.532;13.640;2022-12-07T08:36:11;3.90;99.90
39825;DHT22;25503;52.532;13.640;2022-12-07T08:38:39;3.90;99.90
39825;DHT22;25503;52.532;13.640;2022-12-07T08:41:07;3.90;99.90
39825;DHT22;25503;52.532;13.640;2022-12-07T08:43:34;3.90;99.90
39825;DHT22;25503;52.532;13.640;2022-12-07T08:48:33;4.00;99.90
39825;DHT22;25503;52.532;13.640;2022-12-07T08:51:01;4.00;99.90
39825;DHT22;25503;52.532;13.640;2022-12-07T08:53:34;4.00;99.90
39825;DHT22;25503;52.532;13.640;2022-12-07T08:56:03;4.00;99.90
39825;DHT22;25503;52.532;13.640;2022-12-07T08:58:29;4.00;99.90
39825;DHT22;25503;52.532;13.640;2022-12-07T09:00:55;4.00;99.90
39825;DHT22;25503;52.532;13.640;2022-12-07T09:03:28;4.00;99.90
39825;DHT22;25503;52.532;13.640;2022-12-07T09:05:54;4.00;99.90
39825;DHT22;25503;52.532;13.640;2022-12-07T09:08:22;4.00;99.90
39825;DHT22;25503;52.532;13.640;2022-12-07T09:10:51;4.00;99.90
39825;DHT22;25503;52.532;13.640;2022-12-07T09:13:22;4.00;99.90
39825;DHT22;25503;52.532;13.640;2022-12-07T09:15:48;4.00;99.90
39825;DHT22;25503;52.532;13.640;2022-12-07T09:18:14;4.00;99.90
39825;DHT22;25503;52.532;13.640;2022-12-07T09:20:42;3.90;99.90
39825;DHT22;25503;52.532;13.640;2022-12-07T09:23:16;4.00;99.90
39825;DHT22;25503;52.532;13.640;2022-12-07T09:25:44;4.00;99.90
39825;DHT22;25503;52.532;13.640;2022-12-07T09:28:10;4.00;99.90
39825;DHT22;25503;52.532;13.640;2022-12-07T09:30:36;4.00;99.90
39825;DHT22;25503;52.532;13.640;2022-12-07T09:33:02;4.00;99.90
39825;DHT22;25503;52.532;13.640;2022-12-07T09:35:28;4.00;99.90
39825;DHT22;25503;52.532;13.640;2022-12-07T09:37:53;4.00;99.90
39825;DHT22;25503;52.532;13.640;2022-12-07T09:40:21;4.00;99.90
39825;DHT22;25503;52.532;13.640;2022-12-07T09:42:51;4.00;99.90
39825;DHT22;25503;52.532;13.640;2022-12-07T09:45:22;4.00;99.90
39825;DHT22;25503;52.532;13.640;2022-12-07T09:47:49;4.10;99.90
39825;DHT22;25503;52.532;13.640;2022-12-07T09:50:19;4.10;99.90
39825;DHT22;25503;52.532;13.640;2022-12-07T09:52:46;4.10;99.90
39825;DHT22;25503;52.532;13.640;2022-12-07T09:55:35;4.10;99.90
39825;DHT22;25503;52.532;13.640;2022-12-07T09:58:00;4.10;99.90
39825;DHT22;25503;52.532;13.640;2022-12-07T10:00:25;4.10;99.90
39825;DHT22;25503;52.532;13.640;2022-12-07T10:02:57;4.10;99.90
39825;DHT22;25503;52.532;13.640;2022-12-07T10:05:35;4.10;99.90
39825;DHT22;25503;52.532;13.640;2022-12-07T10:08:03;4.00;99.90
39825;DHT22;25503;52.532;13.640;2022-12-07T10:10:34;4.00;99.90
39825;DHT22;25503;52.532;13.640;2022-12-07T10:13:14;4.00;99.90
39825;DHT22;25503;52.532;13.640;2022-12-07T10:20:47;3.90;99.90
39825;DHT22;25503;52.532;13.640;2022-12-07T10:23:17;3.90;99.90
39825;DHT22;25503;52.532;13.640;2022-12-07T10:25:44;3.90;99.90
39825;DHT22;25503;52.532;13.640;2022-12-07T10:28:18;3.80;99.90
39825;DHT22;25503;52.532;13.640;2022-12-07T10:30:52;3.80;99.90
39825;DHT22;25503;52.532;13.640;2022-12-07T10:33:35;3.80;99.90
39825;DHT22;25503;52.532;13.640;2022-12-07T10:39:02;3.80;99.90
39825;DHT22;25503;52.532;13.640;2022-12-07T10:41:28;3.80;99.90
39825;DHT22;25503;52.532;13.640;2022-12-07T10:43:56;3.80;99.90
39825;DHT22;25503;52.532;13.640;2022-12-07T10:50:10;4.00;99.90
39825;DHT22;25503;52.532;13.640;2022-12-07T11:15:00;3.90;99.90
39825;DHT22;25503;52.532;13.640;2022-12-07T11:22:54;3.90;99.90
39825;DHT22;25503;52.532;13.640;2022-12-07T11:25:31;4.00;99.90
39825;DHT22;25503;52.532;13.640;2022-12-07T11:31:07;4.00;99.90
39825;DHT22;25503;52.532;13.640;2022-12-07T11:34:03;4.00;99.90
39825;DHT22;25503;52.532;13.640;2022-12-07T11:36:40;3.90;99.90
39825;DHT22;25503;52.532;13.640;2022-12-07T11:41:48;3.90;99.90
39825;DHT22;25503;52.532;13.640;2022-12-07T11:47:41;3.90;99.90
39825;DHT22;25503;52.532;13.640;2022-12-07T11:50:33;4.00;99.90
39825;DHT22;25503;52.532;13.640;2022-12-07T11:52:58;4.00;99.90
39825;DHT22;25503;52.532;13.640;2022-12-07T11:55:41;4.00;99.90
39825;DHT22;25503;52.532;13.640;2022-12-07T12:01:15;4.00;99.90
39825;DHT22;25503;52.532;13.640;2022-12-07T12:03:53;4.00;99.90
39825;DHT22;25503;52.532;13.640;2022-12-07T12:06:21;4.00;99.90
39825;DHT22;25503;52.532;13.640;2022-12-07T12:17:44;4.20;99.90
39825;DHT22;25503;52.532;13.640;2022-12-07T12:20:26;4.20;99.90
39825;DHT22;25503;52.532;13.640;2022-12-07T12:25:29;4.20;99.90
39825;DHT22;25503;52.532;13.640;2022-12-07T12:27:58;4.30;99.90
39825;DHT22;25503;52.532;13.640;2022-12-07T12:33:35;4.30;99.90
39825;DHT22;25503;52.532;13.640;2022-12-07T12:36:27;4.30;99.90
39825;DHT22;25503;52.532;13.640;2022-12-07T12:46:55;4.30;99.90
39825;DHT22;25503;52.532;13.640;2022-12-07T12:51:54;4.40;99.90
39825;DHT22;25503;52.532;13.640;2022-12-07T12:54:22;4.40;99.90
39825;DHT22;25503;52.532;13.640;2022-12-07T12:56:51;4.40;99.90
39825;DHT22;25503;52.532;13.640;2022-12-07T13:01:49;4.40;99.90
39825;DHT22;25503;52.532;13.640;2022-12-07T13:04:28;4.40;99.90
39825;DHT22;25503;52.532;13.640;2022-12-07T13:06:56;4.40;99.90
39825;DHT22;25503;52.532;13.640;2022-12-07T13:09:24;4.40;99.90
39825;DHT22;25503;52.532;13.640;2022-12-07T13:12:11;4.40;99.90
39825;DHT22;25503;52.532;13.640;2022-12-07T13:20:05;4.50;99.90
39825;DHT22;25503;52.532;13.640;2022-12-07T13:28:20;4.50;99.90
39825;DHT22;25503;52.532;13.640;2022-12-07T13:30:54;4.50;99.90
39825;DHT22;25503;52.532;13.640;2022-12-07T13:33:24;4.50;99.90
39825;DHT22;25503;52.532;13.640;2022-12-07T13:35:56;4.50;99.90
39825;DHT22;25503;52.532;13.640;2022-12-07T13:38:30;4.50;99.90
39825;DHT22;25503;52.532;13.640;2022-12-07T13:41:04;4.40;99.90
39825;DHT22;25503;52.532;13.640;2022-12-07T13:43:31;4.50;99.90
39825;DHT22;25503;52.532;13.640;2022-12-07T13:45:58;4.50;99.90
39825;DHT22;25503;52.532;13.640;2022-12-07T13:48:43;4.50;99.90
39825;DHT22;25503;52.532;13.640;2022-12-07T13:53:53;4.40;99.90
39825;DHT22;25503;52.532;13.640;2022-12-07T13:56:21;4.50;99.90
39825;DHT22;25503;52.532;13.640;2022-12-07T13:58:48;4.50;99.90
39825;DHT22;25503;52.532;13.640;2022-12-07T14:01:13;4.40;99.90
39825;DHT22;25503;52.532;13.640;2022-12-07T14:03:40;4.50;99.90
39825;DHT22;25503;52.532;13.640;2022-12-07T14:08:46;4.40;99.90
39825;DHT22;25503;52.532;13.640;2022-12-07T14:11:18;4.40;99.90
39825;DHT22;25503;52.532;13.640;2022-12-07T14:14:04;4.40;99.90
39825;DHT22;25503;52.532;13.640;2022-12-07T14:16:37;4.40;99.90
39825;DHT22;25503;52.532;13.640;2022-12-07T14:19:05;4.40;99.90
39825;DHT22;25503;52.532;13.640;2022-12-07T14:21:34;4.50;99.90
39825;DHT22;25503;52.532;13.640;2022-12-07T14:24:15;4.50;99.90
39825;DHT22;25503;52.532;13.640;2022-12-07T14:26:42;4.40;99.90
39825;DHT22;25503;52.532;13.640;2022-12-07T14:31:52;4.50;99.90
39825;DHT22;25503;52.532;13.640;2022-12-07T14:34:22;4.40;99.90
39825;DHT22;25503;52.532;13.640;2022-12-07T14:36:48;4.40;99.90
39825;DHT22;25503;52.532;13.640;2022-12-07T14:39:13;4.30;99.90
39825;DHT22;25503;52.532;13.640;2022-12-07T14:41:39;4.40;99.90
39825;DHT22;25503;52.532;13.640;2022-12-07T14:44:21;4.30;99.90
39825;DHT22;25503;52.532;13.640;2022-12-07T14:46:48;4.30;99.90
39825;DHT22;25503;52.532;13.640;2022-12-07T14:49:14;4.30;99.90
39825;DHT22;25503;52.532;13.640;2022-12-07T14:51:40;4.30;99.90
39825;DHT22;25503;52.532;13.640;2022-12-07T14:54:14;4.30;99.90
39825;DHT22;25503;52.532;13.640;2022-12-07T14:56:41;4.30;99.90
39825;DHT22;25503;52.532;13.640;2022-12-07T14:59:07;4.40;99.90
39825;DHT22;25503;52.532;13.640;2022-12-07T15:01:32;4.40;99.90
39825;DHT22;25503;52.532;13.640;2022-12-07T15:03:58;4.40;99.90
39825;DHT22;25503;52.532;13.640;2022-12-07T15:06:24;4.40;99.90
39825;DHT22;25503;52.532;13.640;2022-12-07T15:08:49;4.50;99.90
39825;DHT22;25503;52.532;13.640;2022-12-07T15:11:17;4.40;99.90
39825;DHT22;25503;52.532;13.640;2022-12-07T15:13:42;4.40;99.90
39825;DHT22;25503;52.532;13.640;2022-12-07T15:16:27;4.50;99.90
39825;DHT22;25503;52.532;13.640;2022-12-07T15:18:52;4.50;99.90
39825;DHT22;25503;52.532;13.640;2022-12-07T15:21:18;4.40;99.90
39825;DHT22;25503;52.532;13.640;2022-12-07T15:23:44;4.40;99.90
39825;DHT22;25503;52.532;13.640;2022-12-07T15:26:11;4.40;99.90
39825;DHT22;25503;52.532;13.640;2022-12-07T15:28:37;4.40;99.90
39825;DHT22;25503;52.532;13.640;2022-12-07T15:31:02;4.30;99.90
39825;DHT22;25503;52.532;13.640;2022-12-07T15:33:28;4.30;99.90
39825;DHT22;25503;52.532;13.640;2022-12-07T15:35:54;4.30;99.90
39825;DHT22;25503;52.532;13.640;2022-12-07T15:38:19;4.20;99.90
39825;DHT22;25503;52.532;13.640;2022-12-07T15:40:48;4.20;99.90
39825;DHT22;25503;52.532;13.640;2022-12-07T15:43:14;4.20;99.90
39825;DHT22;25503;52.532;13.640;2022-12-07T15:45:59;4.10;99.90
39825;DHT22;25503;52.532;13.640;2022-12-07T15:48:25;4.10;99.90
39825;DHT22;25503;52.532;13.640;2022-12-07T15:50:51;4.00;99.90
39825;DHT22;25503;52.532;13.640;2022-12-07T15:53:17;4.10;99.90
39825;DHT22;25503;52.532;13.640;2022-12-07T15:55:42;4.00;99.90
39825;DHT22;25503;52.532;13.640;2022-12-07T15:58:08;4.00;99.90
39825;DHT22;25503;52.532;13.640;2022-12-07T16:00:33;4.00;99.90
39825;DHT22;25503;52.532;13.640;2022-12-07T16:02:59;3.90;99.90
39825;DHT22;25503;52.532;13.640;2022-12-07T16:05:25;3.90;99.90
39825;DHT22;25503;52.532;13.640;2022-12-07T16:07:50;3.90;99.90
39825;DHT22;25503;52.532;13.640;2022-12-07T16:10:16;3.90;99.90
39825;DHT22;25503;52.532;13.640;2022-12-07T16:12:41;3.90;99.90
39825;DHT22;25503;52.532;13.640;2022-12-07T16:15:07;3.90;99.90
39825;DHT22;25503;52.532;13.640;2022-12-07T16:17:33;3.90;99.90
39825;DHT22;25503;52.532;13.640;2022-12-07T16:19:59;4.00;99.90
39825;DHT22;25503;52.532;13.640;2022-12-07T16:22:24;4.00;99.90
39825;DHT22;25503;52.532;13.640;2022-12-07T16:24:50;4.00;99.90
39825;DHT22;25503;52.532;13.640;2022-12-07T16:27:15;4.00;99.90
39825;DHT22;25503;52.532;13.640;2022-12-07T16:29:41;4.00;99.90
39825;DHT22;25503;52.532;13.640;2022-12-07T16:32:07;4.00;99.90
39825;DHT22;25503;52.532;13.640;2022-12-07T16:34:32;3.80;99.90
39825;DHT22;25503;52.532;13.640;2022-12-07T16:36:58;3.60;99.90
39825;DHT22;25503;52.532;13.640;2022-12-07T16:39:24;3.40;99.90
39825;DHT22;25503;52.532;13.640;2022-12-07T16:41:50;3.30;99.90
39825;DHT22;25503;52.532;13.640;2022-12-07T16:44:15;3.20;99.90
39825;DHT22;25503;52.532;13.640;2022-12-07T16:46:41;3.10;99.90
39825;DHT22;25503;52.532;13.640;2022-12-07T16:49:14;3.00;99.90
39825;DHT22;25503;52.532;13.640;2022-12-07T16:51:40;3.00;99.90
39825;DHT22;25503;52.532;13.640;2022-12-07T16:54:10;3.00;99.90
39825;DHT22;25503;52.532;13.640;2022-12-07T16:56:35;3.00;99.90
39825;DHT22;25503;52.532;13.640;2022-12-07T16:59:01;3.00;99.90
39825;DHT22;25503;52.532;13.640;2022-12-07T17:01:27;3.10;99.90
39825;DHT22;25503;52.532;13.640;2022-12-07T17:03:53;3.10;99.90
39825;DHT22;25503;52.532;13.640;2022-12-07T17:06:21;3.20;99.90
39825;DHT22;25503;52.532;13.640;2022-12-07T17:08:48;3.20;99.90
39825;DHT22;25503;52.532;13.640;2022-12-07T17:11:17;3.20;99.90
39825;DHT22;25503;52.532;13.640;2022-12-07T17:13:43;3.20;99.90
39825;DHT22;25503;52.532;13.640;2022-12-07T17:16:28;3.20;99.90
39825;DHT22;25503;52.532;13.640;2022-12-07T17:18:54;3.20;99.90
39825;DHT22;25503;52.532;13.640;2022-12-07T17:21:20;3.20;99.90
39825;DHT22;25503;52.532;13.640;2022-12-07T17:23:46;3.20;99.90
39825;DHT22;25503;52.532;13.640;2022-12-07T17:26:15;3.10;99.90
39825;DHT22;25503;52.532;13.640;2022-12-07T17:28:40;3.10;99.90
39825;DHT22;25503;52.532;13.640;2022-12-07T17:31:08;3.10;99.90
39825;DHT22;25503;52.532;13.640;2022-12-07T17:33:35;3.10;99.90
39825;DHT22;25503;52.532;13.640;2022-12-07T17:36:01;3.10;99.90
39825;DHT22;25503;52.532;13.640;2022-12-07T17:38:34;3.10;99.90
39825;DHT22;25503;52.532;13.640;2022-12-07T17:40:59;3.00;99.90
39825;DHT22;25503;52.532;13.640;2022-12-07T17:43:25;3.00;99.90
39825;DHT22;25503;52.532;13.640;2022-12-07T17:45:50;3.00;99.90
39825;DHT22;25503;52.532;13.640;2022-12-07T17:48:16;3.00;99.90
39825;DHT22;25503;52.532;13.640;2022-12-07T17:50:42;3.00;99.90
39825;DHT22;25503;52.532;13.640;2022-12-07T17:53:26;3.00;99.90
39825;DHT22;25503;52.532;13.640;2022-12-07T17:55:55;2.90;99.90